Latest Weather Observations for Point Fawcett

IDD60801

Issued at 10:05 pm CST Wednesday 20 August 2014 (issued every 30 minutes, with the page automatically refreshed every 10 minutes)

About weather observations | Map of weather stations | Latest weather observations for NT | Other Formats
Station Details ID: 200731 Name: POINT FAWCETT Lat: -11.76 Lon: 130.03 Height: 6.5 m
Data from the previous 72 hours. | See also: Recent months at Point Fawcett
Date/Time
CST
Temp
°C
App
Temp
°C
Dew
Point
Rel
Hum
%
Delta-T
°C
Wind Press
QNH
hPa
Press
MSL
hPa
Rain
since 9 am
mm
Dir
 
Spd
km/h
Gust
km/h
Spd
kts
Gust
kts
20/10:00pm 24.1 24.7 18.5 71 3.5 N 13 17 7 9 1014.6 - -
20/09:30pm 24.2 24.7 19.3 74 3.1 N 15 19 8 10 1014.5 - -
20/09:00pm 24.2 25.3 19.7 76 2.9 N 13 17 7 9 1014.3 1014.3 -
20/08:30pm 24.5 25.7 20.0 76 2.9 N 13 20 7 11 1013.9 - -
20/08:00pm 24.4 25.6 19.0 72 3.4 N 11 17 6 9 1013.7 - -
20/07:30pm 24.5 25.2 18.0 67 4.1 NNW 11 13 6 7 1013.5 - -
20/07:00pm 24.6 25.4 17.3 64 4.5 NNW 9 13 5 7 1013.4 - -
20/06:30pm 25.3 26.0 17.0 60 5.1 NNW 9 11 5 6 1013.3 - -
20/06:00pm 26.2 26.5 17.0 57 5.7 NW 11 15 6 8 1013.0 1013.0 -
20/05:30pm 26.7 27.0 16.9 55 6.1 NNW 11 15 6 8 1012.9 - -
20/05:00pm 27.6 28.1 17.5 54 6.4 NNW 11 15 6 8 1012.8 - -
20/04:30pm 28.3 28.1 17.5 52 6.8 NW 15 19 8 10 1012.6 - -
20/04:00pm 28.6 28.2 18.1 53 6.7 NW 17 20 9 11 1012.6 - -
20/03:30pm 28.9 29.2 19.5 57 6.1 NNW 17 24 9 13 1012.7 - -
20/03:00pm 29.9 30.1 17.7 48 7.8 NW 13 20 7 11 1012.9 1012.9 -
20/02:30pm 29.3 28.4 18.1 51 7.2 NNW 20 28 11 15 1013.1 - -
20/02:00pm 30.3 30.3 15.2 40 9.3 WNW 9 17 5 9 1013.3 - -
20/01:30pm 29.5 28.4 15.2 41 8.8 WNW 15 20 8 11 1013.6 - -
20/01:00pm 29.2 27.7 13.0 37 9.6 WNW 13 20 7 11 1014.1 - -
20/12:30pm 29.2 28.4 13.0 37 9.6 NNW 9 13 5 7 1014.5 - -
20/12:00pm 29.9 27.3 7.7 25 12.1 E 11 17 6 9 1014.9 1014.9 -
20/11:30am 29.0 26.8 9.2 29 11.0 ESE 11 19 6 10 1015.3 - -
20/11:00am 28.6 25.9 11.6 34 9.8 E 17 26 9 14 1015.6 - -
20/10:30am 28.0 26.0 11.5 35 9.5 SE 13 22 7 12 1016.0 - -
20/10:00am 27.6 25.4 10.8 35 9.5 ESE 13 26 7 14 1016.1 - -
20/09:30am 26.0 25.1 13.8 47 7.2 SE 11 19 6 10 1016.0 - -
20/09:00am 23.9 25.4 18.1 70 3.6 ESE 7 11 4 6 1015.8 1015.8 -
20/08:30am 21.0 24.1 20.2 95 0.5 ESE 4 7 2 4 1015.7 - -
20/08:00am 17.6 18.7 17.0 96 0.4 ESE 7 9 4 5 1015.5 - -
20/07:30am 15.1 15.1 14.3 95 0.5 ESE 7 9 4 5 1015.3 - -
20/07:00am 14.5 14.3 13.7 95 0.4 ESE 7 9 4 5 1015.1 - -
20/06:30am 14.7 14.6 13.9 95 0.4 SE 7 9 4 5 1014.9 - -
20/06:00am 14.6 14.4 13.6 94 0.6 SE 7 7 4 4 1014.5 1014.5 -
20/05:30am 14.9 14.8 13.9 94 0.6 SE 7 7 4 4 1014.2 - -
20/05:00am 15.1 15.1 14.1 94 0.6 SSE 7 9 4 5 1013.9 - -
20/04:30am 15.4 15.5 14.4 94 0.6 SSE 7 7 4 4 1013.9 - -
20/04:00am 15.7 15.9 14.6 93 0.6 S 7 9 4 5 1014.1 - -
20/03:30am 16.0 16.3 14.9 93 0.6 S 7 9 4 5 1014.3 - -
20/03:00am 16.1 16.3 14.8 92 0.7 S 7 9 4 5 1014.4 1014.4 -
20/02:30am 16.5 16.8 15.0 91 0.9 S 7 9 4 5 1014.5 - -
20/02:00am 16.5 17.0 14.9 90 0.9 SW 6 9 3 5 1014.6 - -
20/01:30am 16.8 18.4 15.0 89 1.0 CALM 0 6 0 3 1014.8 - -
20/01:00am 17.2 18.5 15.2 88 1.2 WSW 2 6 1 3 1014.9 - -
20/12:30am 17.6 18.5 15.0 85 1.5 SW 4 6 2 3 1015.1 - -
20/12:00am 18.5 19.0 15.0 80 2.0 WNW 6 7 3 4 1015.1 1015.1 -
 
Date/Time
CST
Temp
°C
App
Temp
°C
Dew
Point
Rel
Hum
%
Delta-T
°C
Wind Press
QNH
hPa
Press
MSL
hPa
Rain
since 9 am
mm
Dir
 
Spd
km/h
Gust
km/h
Spd
kts
Gust
kts
19/11:30pm 21.5 21.8 16.9 75 2.8 NW 11 13 6 7 1015.2 - -
19/11:00pm 23.3 24.3 18.6 75 3.0 NNW 11 13 6 7 1015.1 - -
19/10:30pm 23.6 25.2 19.1 76 2.9 N 9 15 5 8 1015.1 - -
19/10:00pm 23.6 24.8 19.1 76 2.9 N 11 15 6 8 1014.9 - -
19/09:30pm 23.7 25.2 19.0 75 3.0 N 9 13 5 7 1014.7 - -
19/09:00pm 23.4 24.3 18.3 73 3.2 N 11 17 6 9 1014.4 1014.4 -
19/08:30pm 21.6 22.2 15.9 70 3.4 N 7 11 4 6 1014.3 - -
19/08:00pm 23.5 24.7 17.3 68 3.8 N 7 11 4 6 1014.1 - -
19/07:30pm 24.1 25.2 18.1 69 3.8 N 9 13 5 7 1013.8 - -
19/07:00pm 24.5 25.3 18.2 68 4.0 N 11 15 6 8 1013.4 - -
19/06:30pm 25.1 25.9 18.1 65 4.4 NNW 11 15 6 8 1013.1 - -
19/06:00pm 26.1 26.3 17.7 60 5.3 NNW 13 17 7 9 1012.9 1012.9 -
19/05:30pm 26.9 27.5 17.7 57 5.8 NNW 11 15 6 8 1013.0 - -
19/05:00pm 27.0 26.6 17.2 55 6.1 NNW 15 20 8 11 1013.0 - -
19/04:30pm 27.7 28.0 17.8 54 6.3 NW 13 19 7 10 1013.0 - -
19/04:00pm 28.8 29.1 18.0 52 6.9 NNE 13 22 7 12 1013.0 - -
19/03:30pm 28.6 29.2 17.8 52 6.9 WSW 11 20 6 11 1013.2 - -
19/03:00pm 28.5 28.6 16.4 48 7.5 W 11 19 6 10 1013.5 1013.5 -
19/02:30pm 27.6 27.6 15.3 47 7.5 W 9 13 5 7 1013.8 - -
19/02:00pm 28.2 28.3 16.5 49 7.3 WNW 11 15 6 8 1014.2 - -
19/01:30pm 28.4 28.3 16.0 47 7.7 WNW 11 13 6 7 1014.6 - -
19/01:00pm 28.6 28.1 15.8 45 7.9 NNW 13 17 7 9 1015.0 - -
19/12:30pm 28.7 27.7 15.6 45 8.0 NNW 15 19 8 10 1015.5 - -
19/12:00pm 29.1 29.4 17.0 48 7.6 N 11 17 6 9 1016.1 1016.1 -
19/11:30am 29.5 27.5 8.5 27 11.6 ENE 9 15 5 8 1016.3 - -
19/11:00am 28.7 26.6 11.3 34 10.0 E 13 20 7 11 1016.8 - -
19/10:30am 27.6 25.1 11.2 36 9.3 ESE 15 24 8 13 1017.2 - -
19/10:00am 26.8 24.4 11.3 38 8.8 SE 15 24 8 13 1017.0 - -
19/09:30am 26.5 24.2 11.8 40 8.4 ESE 15 30 8 16 1016.8 - -
19/09:00am 25.4 24.8 14.5 51 6.5 ESE 11 17 6 9 1016.5 1016.5 -
19/08:30am 21.7 23.7 19.1 85 1.6 SSE 7 11 4 6 1016.5 - -
19/08:00am 17.3 18.2 16.7 96 0.4 SSE 7 11 4 6 1016.2 - -
19/07:30am 14.3 14.1 13.7 96 0.3 SSE 7 11 4 6 1015.9 - -
19/07:00am 13.3 12.4 12.5 95 0.4 S 9 11 5 6 1015.7 - -
19/06:30am 13.4 12.9 12.6 95 0.4 SSE 7 9 4 5 1015.6 - -
19/06:00am 13.5 13.0 12.7 95 0.4 SSE 7 9 4 5 1015.4 1015.4 -
19/05:30am 13.5 13.0 12.6 94 0.5 SSE 7 9 4 5 1015.3 - -
19/05:00am 13.7 13.2 12.8 94 0.5 SSE 7 9 4 5 1015.2 - -
19/04:30am 13.8 13.3 12.7 93 0.6 SSE 7 9 4 5 1015.3 - -
19/04:00am 13.8 12.9 12.7 93 0.6 S 9 11 5 6 1015.3 - -
19/03:30am 13.9 13.4 12.6 92 0.7 SSE 7 9 4 5 1015.2 - -
19/03:00am 14.4 13.7 13.1 92 0.7 SSE 9 9 5 5 1015.3 1015.3 -
19/02:30am 14.5 14.1 12.9 90 0.9 SSE 7 9 4 5 1015.4 - -
19/02:00am 14.3 13.8 12.7 90 0.9 SSE 7 9 4 5 1015.5 - -
19/01:30am 14.3 13.7 12.3 88 1.1 SSE 7 7 4 4 1015.6 - -
19/01:00am 14.4 13.8 12.3 87 1.1 SE 7 9 4 5 1015.7 - -
19/12:30am 14.4 13.7 11.9 85 1.3 SSE 7 7 4 4 1015.9 - -
19/12:00am 14.8 14.2 12.3 85 1.4 SSW 7 9 4 5 1015.9 1015.9 -
 
Date/Time
CST
Temp
°C
App
Temp
°C
Dew
Point
Rel
Hum
%
Delta-T
°C
Wind Press
QNH
hPa
Press
MSL
hPa
Rain
since 9 am
mm
Dir
 
Spd
km/h
Gust
km/h
Spd
kts
Gust
kts
18/11:30pm 14.5 13.9 11.6 83 1.6 SSW 6 9 3 5 1015.9 - -
18/11:00pm 14.5 13.8 11.3 81 1.7 SW 6 9 3 5 1016.1 - -
18/10:30pm 14.7 14.3 11.1 79 1.9 W 4 7 2 4 1016.0 - -
18/10:00pm 14.7 14.2 10.7 77 2.1 W 4 7 2 4 1015.8 - -
18/09:30pm 14.8 14.9 10.2 74 2.4 CALM 0 0 0 0 1015.7 - -
18/09:00pm 15.0 15.1 10.2 73 2.5 CALM 0 0 0 0 1015.6 1015.6 -
18/08:30pm 15.5 15.6 10.3 71 2.7 CALM 0 0 0 0 1015.3 - -
18/08:00pm 16.6 16.8 10.7 68 3.1 CALM 0 0 0 0 1014.8 - -
18/07:30pm 17.9 18.2 11.0 64 3.7 CALM 0 0 0 0 1014.6 - -
18/07:00pm 20.1 20.5 11.1 56 4.9 CALM 0 0 0 0 1014.3 - -
18/06:30pm 24.0 24.0 9.9 41 7.7 CALM 0 0 0 0 1014.1 - -
18/06:00pm 27.3 26.1 8.2 30 10.3 SE 4 6 2 3 1013.9 1013.9 -
18/05:30pm 28.0 26.4 7.8 28 10.9 ESE 6 11 3 6 1013.7 - -
18/05:00pm 28.4 26.1 7.6 27 11.2 ESE 9 15 5 8 1013.6 - -
18/04:30pm 28.7 25.6 7.3 26 11.5 ESE 13 17 7 9 1013.6 - -
18/04:00pm 28.8 25.7 7.4 26 11.5 ESE 13 20 7 11 1013.5 - -
18/03:30pm 28.7 26.0 8.9 29 10.9 ESE 13 24 7 13 1013.6 - -
18/03:00pm 29.0 26.0 9.2 29 11.0 ESE 15 22 8 12 1013.7 1013.7 -
18/02:30pm 29.1 26.5 10.7 32 10.5 ESE 15 28 8 15 1013.9 - -
18/02:00pm 28.6 26.7 12.9 38 9.2 ESE 15 24 8 13 1014.3 - -
18/01:30pm 28.6 26.9 13.7 40 8.9 SE 15 26 8 14 1014.5 - -
18/01:00pm 28.1 25.2 12.4 37 9.1 E 19 30 10 16 1014.9 - -
18/12:30pm 28.7 26.8 15.2 43 8.2 ESE 19 28 10 15 1015.3 - -
18/12:00pm 28.4 26.4 13.9 41 8.7 ESE 17 26 9 14 1015.7 1015.7 -
18/11:30am 27.8 25.9 13.0 40 8.7 SE 15 26 8 14 1016.1 - -
18/11:00am 27.8 25.9 13.0 40 8.7 ESE 15 24 8 13 1016.5 - -
18/10:30am 27.2 24.8 12.8 41 8.4 E 17 24 9 13 1016.9 - -
18/10:00am 26.8 24.6 12.1 40 8.5 ESE 15 28 8 15 1016.9 - -
18/09:30am 25.9 23.5 11.3 40 8.3 ESE 15 28 8 15 1016.9 - -
18/09:00am 25.4 23.3 11.2 41 8.0 ESE 13 20 7 11 1016.7 1016.7 -
18/08:30am 23.7 21.9 10.7 44 7.2 ESE 11 19 6 10 1016.2 - -
18/08:00am 20.0 18.8 11.7 59 4.6 ESE 9 15 5 8 1015.9 - -
18/07:30am 15.1 14.4 13.1 88 1.1 SE 9 13 5 7 1015.4 - -
18/07:00am 12.4 11.5 11.3 93 0.6 SE 7 11 4 6 1015.1 - -
18/06:30am 12.2 11.3 11.3 94 0.5 SE 7 11 4 6 1014.9 - -
18/06:00am 11.9 10.8 10.8 93 0.6 SE 7 9 4 5 1014.7 1014.7 -
18/05:30am 12.0 11.0 10.9 93 0.6 SSE 7 9 4 5 1014.6 - -
18/05:00am 12.1 11.1 11.0 93 0.6 SSE 7 9 4 5 1014.5 - -
18/04:30am 12.3 11.3 11.0 92 0.7 SSE 7 9 4 5 1014.5 - -
18/04:00am 12.2 11.2 10.9 92 0.7 SE 7 9 4 5 1014.6 - -
18/03:30am 12.3 11.2 10.7 90 0.8 SE 7 7 4 4 1014.6 - -
18/03:00am 12.5 11.4 10.7 89 0.9 SE 7 7 4 4 1014.6 1014.6 -
18/02:30am 12.9 11.9 11.0 88 1.0 SSE 7 9 4 5 1014.7 - -
18/02:00am 12.9 11.8 10.6 86 1.2 SE 7 9 4 5 1015.0 - -
18/01:30am 13.0 11.9 10.5 85 1.3 SSE 7 9 4 5 1015.2 - -
18/01:00am 13.1 12.0 10.6 85 1.3 SSE 7 9 4 5 1015.4 - -
18/12:30am 13.3 12.2 10.7 84 1.4 SSE 7 9 4 5 1015.6 - -
18/12:00am 13.2 11.5 10.0 81 1.6 SSE 9 11 5 6 1015.6 1015.6 -
 
Date/Time
CST
Temp
°C
App
Temp
°C
Dew
Point
Rel
Hum
%
Delta-T
°C
Wind Press
QNH
hPa
Press
MSL
hPa
Rain
since 9 am
mm
Dir
 
Spd
km/h
Gust
km/h
Spd
kts
Gust
kts
17/11:30pm 13.4 12.1 10.0 80 1.8 SE 7 9 4 5 1015.5 - -
17/11:00pm 13.4 11.9 9.3 76 2.1 SE 7 9 4 5 1015.6 - -
17/10:30pm 13.7 12.1 8.7 72 2.5 SE 7 7 4 4 1015.6 - -

Other Formats:

Comma delimited format used in spreadsheet applications
http://www.bom.gov.au/fwo/IDD60801/IDD60801.94122.axf

JavaScript Object Notation format (JSON) in row-major order
http://www.bom.gov.au/fwo/IDD60801/IDD60801.94122.json